createdAt,value
2019-05-25T00:01:12.626Z,61.00
2019-05-25T00:03:41.282Z,60.91
2019-05-25T00:06:09.922Z,61.02
2019-05-25T00:08:38.628Z,61.03
2019-05-25T00:11:07.436Z,61.00
2019-05-25T00:13:36.096Z,61.51
2019-05-25T00:16:04.829Z,61.17
2019-05-25T00:18:33.492Z,61.16
2019-05-25T00:21:02.164Z,61.03
2019-05-25T00:23:30.887Z,60.68
2019-05-25T00:25:59.546Z,60.28
2019-05-25T00:28:28.199Z,60.79
2019-05-25T00:30:56.914Z,61.18
2019-05-25T00:33:25.487Z,61.35
2019-05-25T00:35:54.152Z,61.28
2019-05-25T00:38:22.942Z,61.40
2019-05-25T00:40:51.601Z,61.29
2019-05-25T00:43:20.259Z,60.79
2019-05-25T00:45:48.986Z,60.97
2019-05-25T00:48:17.649Z,61.19
2019-05-25T00:50:46.311Z,61.15
2019-05-25T00:53:15.047Z,60.42
2019-05-25T00:55:43.778Z,59.43
2019-05-25T00:58:12.422Z,60.49
2019-05-25T01:00:41.724Z,60.59
2019-05-25T01:03:10.445Z,60.06
2019-05-25T01:05:40.536Z,60.54
2019-05-25T01:08:09.272Z,60.60
2019-05-25T01:10:37.945Z,60.09
2019-05-25T01:13:06.593Z,61.80
2019-05-25T01:15:35.306Z,61.61
2019-05-25T01:18:03.970Z,62.24
2019-05-25T01:20:32.616Z,62.78
2019-05-25T01:23:01.378Z,63.07
2019-05-25T01:25:30.036Z,62.79
2019-05-25T01:27:58.845Z,62.15
2019-05-25T01:30:27.559Z,62.26
2019-05-25T01:32:56.212Z,63.23
2019-05-25T01:35:24.852Z,63.50
2019-05-25T01:37:53.511Z,63.63
2019-05-25T01:40:22.352Z,63.69
2019-05-25T01:42:51.008Z,64.24
2019-05-25T01:45:19.779Z,63.41
2019-05-25T01:47:48.450Z,62.01
2019-05-25T01:50:17.153Z,62.46
2019-05-25T01:52:46.021Z,62.26
2019-05-25T01:55:14.879Z,62.86
2019-05-25T01:57:43.497Z,63.58
2019-05-25T02:00:12.957Z,63.23
2019-05-25T02:02:41.599Z,62.92
2019-05-25T02:05:10.380Z,62.74
2019-05-25T02:07:39.032Z,62.65
2019-05-25T02:10:08.715Z,62.73
2019-05-25T02:12:37.595Z,62.87
2019-05-25T02:15:10.643Z,63.22
2019-05-25T02:17:39.317Z,63.65
2019-05-25T02:20:09.259Z,63.30
2019-05-25T02:22:38.075Z,62.35
2019-05-25T02:25:17.557Z,62.31
2019-05-25T02:27:39.658Z,61.82
2019-05-25T02:30:10.551Z,61.99
2019-05-25T02:32:39.544Z,61.56
2019-05-25T02:35:08.633Z,61.87
2019-05-25T02:37:37.592Z,62.18
2019-05-25T02:40:07.135Z,62.05
2019-05-25T02:42:36.337Z,61.63
2019-05-25T02:45:07.492Z,62.11
2019-05-25T02:47:36.070Z,62.08
2019-05-25T02:50:07.115Z,61.08
2019-05-25T02:52:35.965Z,60.80
2019-05-25T02:55:06.539Z,60.20
2019-05-25T02:57:35.201Z,60.51
2019-05-25T03:00:05.349Z,60.83
2019-05-25T03:02:34.005Z,61.28
2019-05-25T03:05:02.778Z,61.27
2019-05-25T03:07:31.656Z,60.47
2019-05-25T03:10:00.789Z,61.15
2019-05-25T03:12:30.221Z,61.40
2019-05-25T03:14:58.870Z,62.21
2019-05-25T03:17:27.542Z,61.94
2019-05-25T03:19:56.188Z,60.72
2019-05-25T03:22:24.910Z,61.02
2019-05-25T03:24:53.562Z,62.42
2019-05-25T03:27:22.210Z,62.71
2019-05-25T03:29:50.874Z,63.08
2019-05-25T03:32:19.969Z,63.18
2019-05-25T03:34:48.561Z,62.80
2019-05-25T03:37:18.715Z,62.35
2019-05-25T03:39:47.409Z,61.91
2019-05-25T03:42:16.081Z,61.50
2019-05-25T03:44:44.924Z,61.46
2019-05-25T03:47:13.622Z,61.46
2019-05-25T03:49:42.277Z,61.70
2019-05-25T03:52:10.866Z,60.23
2019-05-25T03:54:39.578Z,61.06
2019-05-25T03:57:08.273Z,61.14
2019-05-25T03:59:36.921Z,59.77
2019-05-25T04:02:06.041Z,60.04
2019-05-25T04:04:34.706Z,60.18
2019-05-25T04:07:03.364Z,60.49
2019-05-25T04:09:32.077Z,59.57
2019-05-25T04:12:00.744Z,59.13
2019-05-25T04:14:29.383Z,58.52
2019-05-25T04:16:58.155Z,57.82
2019-05-25T04:19:26.815Z,59.17
2019-05-25T04:21:55.474Z,59.70
2019-05-25T04:24:24.181Z,58.66
2019-05-25T04:26:52.831Z,58.07
2019-05-25T04:29:21.494Z,58.82
2019-05-25T04:31:50.220Z,59.02
2019-05-25T04:34:18.872Z,59.38
2019-05-25T04:36:47.524Z,59.36
2019-05-25T04:39:16.217Z,58.42
2019-05-25T04:41:44.896Z,58.67
2019-05-25T04:44:13.551Z,56.58
2019-05-25T04:46:42.279Z,53.63
2019-05-25T04:49:10.923Z,55.19
2019-05-25T04:51:39.509Z,56.66
2019-05-25T04:54:08.318Z,54.38
2019-05-25T04:56:39.927Z,52.84
2019-05-25T04:59:07.355Z,50.80
2019-05-25T05:01:36.271Z,49.25
2019-05-25T05:04:04.953Z,49.61
2019-05-25T05:06:33.606Z,49.30
2019-05-25T05:09:02.337Z,50.21
2019-05-25T05:11:30.983Z,50.21
2019-05-25T05:13:59.651Z,49.26
2019-05-25T05:16:28.358Z,49.88
2019-05-25T05:18:57.046Z,48.87
2019-05-25T05:21:25.689Z,48.56
2019-05-25T05:23:54.399Z,46.77
2019-05-25T05:26:23.055Z,47.29
2019-05-25T05:28:52.325Z,47.16
2019-05-25T05:31:23.742Z,48.85
2019-05-25T05:33:51.403Z,49.58
2019-05-25T05:36:21.592Z,50.07
2019-05-25T05:38:51.211Z,49.68
2019-05-25T05:41:21.071Z,52.51
2019-05-25T05:43:50.714Z,52.47
2019-05-25T05:46:20.887Z,51.57
2019-05-25T05:48:51.810Z,50.39
2019-05-25T05:51:25.400Z,51.32
2019-05-25T05:53:55.440Z,52.50
2019-05-25T05:56:24.088Z,52.03
2019-05-25T05:58:52.713Z,52.62
2019-05-25T06:01:21.482Z,51.60
2019-05-25T06:03:51.639Z,51.76
2019-05-25T06:06:20.556Z,50.96
2019-05-25T06:08:49.220Z,51.54
2019-05-25T06:11:17.971Z,50.71
2019-05-25T06:13:46.675Z,51.09
2019-05-25T06:16:15.408Z,51.81
2019-05-25T06:18:44.077Z,52.83
2019-05-25T06:21:12.965Z,52.88
2019-05-25T06:23:41.649Z,51.18
2019-05-25T06:26:10.317Z,50.37
2019-05-25T06:28:39.218Z,48.50
2019-05-25T06:31:07.927Z,48.58
2019-05-25T06:33:36.665Z,46.94
2019-05-25T06:36:05.370Z,47.46
2019-05-25T06:38:34.017Z,48.07
2019-05-25T06:41:02.963Z,47.10
2019-05-25T06:43:31.674Z,44.79
2019-05-25T06:46:00.403Z,43.71
2019-05-25T06:48:29.274Z,45.48
2019-05-25T06:50:58.052Z,45.59
2019-05-25T06:53:26.729Z,45.00
2019-05-25T06:55:55.470Z,45.62
2019-05-25T06:58:24.170Z,44.51
2019-05-25T07:00:52.853Z,45.31
2019-05-25T07:03:21.535Z,44.27
2019-05-25T07:05:50.368Z,44.80
2019-05-25T07:08:19.030Z,46.27
2019-05-25T07:10:47.804Z,46.39
2019-05-25T07:13:16.478Z,46.41
2019-05-25T07:15:45.247Z,46.48
2019-05-25T07:18:14.006Z,45.88
2019-05-25T07:20:42.837Z,44.86
2019-05-25T07:23:11.465Z,42.78
2019-05-25T07:25:40.128Z,41.81
2019-05-25T07:28:08.861Z,41.24
2019-05-25T07:30:42.458Z,41.25
2019-05-25T07:33:11.342Z,42.11
2019-05-25T07:35:40.128Z,41.29
2019-05-25T07:38:09.040Z,42.14
2019-05-25T07:40:37.825Z,44.08
2019-05-25T07:43:06.655Z,43.30
2019-05-25T07:45:51.807Z,43.54
2019-05-25T07:48:22.091Z,41.09
2019-05-25T07:50:50.744Z,40.95
2019-05-25T07:53:19.413Z,39.80
2019-05-25T07:55:52.082Z,38.57
2019-05-25T07:58:23.027Z,38.81
2019-05-25T08:00:51.650Z,39.63
2019-05-25T08:03:20.268Z,39.54
2019-05-25T08:05:49.090Z,38.85
2019-05-25T08:08:17.810Z,38.82
2019-05-25T08:10:46.573Z,39.29
2019-05-25T08:13:16.254Z,38.53
2019-05-25T08:15:45.003Z,39.73
2019-05-25T08:18:13.647Z,40.40
2019-05-25T08:20:42.297Z,41.30
2019-05-25T08:23:11.020Z,41.90
2019-05-25T08:25:39.713Z,41.37
2019-05-25T08:28:08.392Z,42.95
2019-05-25T08:30:37.106Z,42.52
2019-05-25T08:33:05.822Z,42.61
2019-05-25T08:35:34.554Z,41.71
2019-05-25T08:38:03.176Z,42.62
2019-05-25T08:40:33.324Z,42.21
2019-05-25T08:43:03.542Z,41.06
2019-05-25T08:45:32.205Z,40.34
2019-05-25T08:48:00.816Z,40.68
2019-05-25T08:50:38.127Z,41.94
2019-05-25T08:53:02.370Z,42.31
2019-05-25T08:55:32.521Z,42.00
2019-05-25T08:58:01.173Z,40.14
2019-05-25T09:00:29.929Z,39.92
2019-05-25T09:02:58.699Z,39.67
2019-05-25T09:05:32.993Z,40.32
2019-05-25T09:08:01.660Z,40.21
2019-05-25T09:10:30.367Z,38.78
2019-05-25T09:12:59.029Z,39.35
2019-05-25T09:15:27.686Z,37.94
2019-05-25T09:17:56.508Z,36.94
2019-05-25T09:20:25.153Z,38.32
2019-05-25T09:22:53.818Z,35.97
2019-05-25T09:25:22.525Z,37.00
2019-05-25T09:27:51.180Z,35.74
2019-05-25T09:30:19.993Z,36.28
2019-05-25T09:32:51.412Z,36.06
2019-05-25T09:35:22.372Z,35.21
2019-05-25T09:37:52.479Z,35.91
2019-05-25T09:40:21.287Z,36.30
2019-05-25T09:42:54.866Z,34.21
2019-05-25T09:45:23.554Z,37.14
2019-05-25T09:47:52.298Z,36.51
2019-05-25T09:50:20.984Z,36.19
2019-05-25T09:52:49.662Z,37.23
2019-05-25T09:55:19.894Z,37.85
2019-05-25T09:57:48.457Z,38.09
2019-05-25T10:00:17.592Z,38.83
2019-05-25T10:02:46.824Z,39.18
2019-05-25T10:05:15.794Z,37.90
2019-05-25T10:07:44.460Z,37.25
2019-05-25T10:10:13.412Z,37.98
2019-05-25T10:12:42.050Z,35.84
2019-05-25T10:15:11.403Z,36.18
2019-05-25T10:17:40.055Z,36.41
2019-05-25T10:20:10.427Z,36.11
2019-05-25T10:22:39.116Z,36.19
2019-05-25T10:25:08.389Z,37.70
2019-05-25T10:27:37.010Z,36.43
2019-05-25T10:30:08.006Z,36.24
2019-05-25T10:32:41.768Z,35.61
2019-05-25T10:35:12.500Z,36.75
2019-05-25T10:37:41.182Z,37.91
2019-05-25T10:40:10.247Z,39.24
2019-05-25T10:42:40.526Z,38.30
2019-05-25T10:45:09.874Z,38.21
2019-05-25T10:47:38.741Z,38.22
2019-05-25T10:50:09.221Z,37.16
2019-05-25T10:52:37.892Z,37.44
2019-05-25T10:55:08.181Z,37.93
2019-05-25T10:57:38.501Z,37.01
2019-05-25T11:00:09.464Z,37.98
2019-05-25T11:02:38.119Z,37.87
2019-05-25T11:05:10.369Z,37.97
2019-05-25T11:07:39.112Z,35.85
2019-05-25T11:10:09.075Z,35.85
2019-05-25T11:12:37.798Z,37.61
2019-05-25T11:15:07.352Z,36.74
2019-05-25T11:17:36.582Z,37.28
2019-05-25T11:20:08.059Z,38.07
2019-05-25T11:22:38.186Z,37.72
2019-05-25T11:25:08.131Z,36.63
2019-05-25T11:27:36.855Z,36.44
2019-05-25T11:30:10.368Z,36.32
2019-05-25T11:32:39.126Z,35.92
2019-05-25T11:35:08.161Z,35.59
2019-05-25T11:37:36.880Z,34.95
2019-05-25T11:40:12.154Z,34.34
2019-05-25T11:42:40.753Z,35.23
2019-05-25T11:45:10.239Z,35.33
2019-05-25T11:47:38.905Z,35.34
2019-05-25T11:50:10.989Z,34.87
2019-05-25T11:52:40.145Z,34.18
2019-05-25T11:55:09.426Z,35.09
2019-05-25T11:57:38.075Z,34.18
2019-05-25T12:00:24.198Z,33.53
2019-05-25T12:02:43.031Z,33.76
2019-05-25T12:05:12.095Z,34.31
2019-05-25T12:07:44.474Z,33.63
2019-05-25T12:10:11.884Z,34.94
2019-05-25T12:12:40.669Z,34.19
2019-05-25T12:15:09.791Z,35.06
2019-05-25T12:17:38.430Z,34.14
2019-05-25T12:20:07.744Z,33.54
2019-05-25T12:22:36.506Z,33.78
2019-05-25T12:25:08.846Z,33.99
2019-05-25T12:27:37.448Z,34.18
2019-05-25T12:30:08.486Z,34.35
2019-05-25T12:32:37.152Z,34.45
2019-05-25T12:35:07.595Z,35.84
2019-05-25T12:37:36.314Z,34.77
2019-05-25T12:40:06.985Z,34.03
2019-05-25T12:42:35.665Z,34.72
2019-05-25T12:45:06.074Z,34.41
2019-05-25T12:47:34.800Z,33.22
2019-05-25T12:50:04.719Z,34.44
2019-05-25T12:52:33.272Z,33.75
2019-05-25T12:55:02.937Z,33.86
2019-05-25T12:57:32.694Z,33.84
2019-05-25T13:00:15.036Z,34.50
2019-05-25T13:02:31.653Z,34.44
2019-05-25T13:05:00.381Z,34.03
2019-05-25T13:07:29.097Z,33.78
2019-05-25T13:09:57.824Z,34.04
2019-05-25T13:12:32.791Z,34.32
2019-05-25T13:15:01.511Z,34.94
2019-05-25T13:17:31.865Z,35.21
2019-05-25T13:20:00.514Z,36.17
2019-05-25T13:22:29.222Z,34.77
2019-05-25T13:24:58.026Z,34.81
2019-05-25T13:27:26.769Z,34.13
2019-05-25T13:29:55.486Z,33.63
2019-05-25T13:32:24.272Z,34.32
2019-05-25T13:34:52.927Z,35.44
2019-05-25T13:37:21.640Z,34.70
2019-05-25T13:39:50.418Z,35.06
2019-05-25T13:42:19.162Z,34.65
2019-05-25T13:44:47.881Z,34.54
2019-05-25T13:47:16.707Z,34.75
2019-05-25T13:49:46.605Z,35.67
2019-05-25T13:52:17.022Z,36.70
2019-05-25T13:54:49.004Z,36.13
2019-05-25T13:57:17.670Z,36.74
2019-05-25T13:59:46.332Z,36.20
2019-05-25T14:02:15.023Z,37.50
2019-05-25T14:04:43.741Z,38.81
2019-05-25T14:07:12.601Z,39.19
2019-05-25T14:09:41.251Z,39.02
2019-05-25T14:12:09.906Z,38.04
2019-05-25T14:14:38.653Z,37.85
2019-05-25T14:17:07.448Z,38.06
2019-05-25T14:19:36.058Z,35.92
2019-05-25T14:24:32.385Z,36.79
2019-05-25T14:27:01.044Z,37.32
2019-05-25T14:29:29.724Z,38.04
2019-05-25T14:32:22.688Z,39.32
2019-05-25T14:34:51.411Z,39.30
2019-05-25T14:37:20.001Z,38.74
2019-05-25T14:39:48.744Z,38.03
2019-05-25T14:42:17.469Z,38.31
2019-05-25T14:44:46.131Z,37.80
2019-05-25T14:47:14.838Z,37.17
2019-05-25T14:49:45.026Z,37.42
2019-05-25T14:52:13.697Z,38.02
2019-05-25T14:54:42.314Z,39.83
2019-05-25T14:57:11.059Z,39.46
2019-05-25T14:59:40.086Z,40.31
2019-05-25T15:02:08.787Z,40.80
2019-05-25T15:04:37.507Z,40.27
2019-05-25T15:07:06.175Z,39.09
2019-05-25T15:09:35.067Z,38.99
2019-05-25T15:12:03.784Z,38.04
2019-05-25T15:14:32.444Z,37.72
2019-05-25T15:17:01.414Z,38.25
2019-05-25T15:19:30.079Z,38.16
2019-05-25T15:21:58.789Z,38.25
2019-05-25T15:24:27.644Z,38.23
2019-05-25T15:26:56.363Z,37.47
2019-05-25T15:29:25.082Z,37.80
2019-05-25T15:31:53.962Z,37.48
2019-05-25T15:34:31.361Z,36.69
2019-05-25T15:37:00.027Z,36.51
2019-05-25T15:39:28.759Z,36.80
2019-05-25T15:41:57.421Z,36.68
2019-05-25T15:44:28.906Z,38.05
2019-05-25T15:46:57.621Z,39.00
2019-05-25T15:49:33.262Z,40.97
2019-05-25T15:51:56.668Z,41.85
2019-05-25T15:54:25.441Z,42.26
2019-05-25T15:56:54.142Z,45.75
2019-05-25T15:59:23.805Z,43.25
2019-05-25T16:01:52.658Z,44.20
2019-05-25T16:04:21.366Z,44.17
2019-05-25T16:06:50.133Z,44.09
2019-05-25T16:09:18.760Z,43.95
2019-05-25T16:11:47.704Z,43.90
2019-05-25T16:14:16.388Z,44.75
2019-05-25T16:16:45.042Z,44.01
2019-05-25T16:19:13.915Z,43.83
2019-05-25T16:21:42.602Z,43.87
2019-05-25T16:24:11.249Z,43.87
2019-05-25T16:26:45.892Z,43.42
2019-05-25T16:29:10.329Z,43.34
2019-05-25T16:31:39.059Z,43.13
2019-05-25T16:34:07.717Z,42.58
2019-05-25T16:36:36.364Z,42.74
2019-05-25T16:39:07.179Z,43.03
2019-05-25T16:41:35.844Z,44.05
2019-05-25T16:44:04.546Z,43.75
2019-05-25T16:46:33.265Z,43.65
2019-05-25T16:49:01.924Z,43.25
2019-05-25T16:51:31.026Z,43.32
2019-05-25T16:53:59.674Z,43.19
2019-05-25T16:56:28.333Z,43.57
2019-05-25T16:58:57.018Z,43.18
2019-05-25T17:01:25.800Z,42.94
2019-05-25T17:03:54.461Z,43.90
2019-05-25T17:06:23.143Z,43.54
2019-05-25T17:08:55.890Z,44.13
2019-05-25T17:11:22.304Z,44.16
2019-05-25T17:13:50.998Z,44.68
2019-05-25T17:16:19.642Z,44.61
2019-05-25T17:18:48.158Z,44.96
2019-05-25T17:21:17.101Z,45.36
2019-05-25T17:23:45.816Z,45.36
2019-05-25T17:26:14.629Z,45.55
2019-05-25T17:28:43.327Z,45.34
2019-05-25T17:31:12.137Z,45.30
2019-05-25T17:33:45.818Z,45.30
2019-05-25T17:36:13.164Z,45.66
2019-05-25T17:38:41.707Z,46.12
2019-05-25T17:41:10.368Z,46.34
2019-05-25T17:43:39.124Z,46.44
2019-05-25T17:46:08.774Z,47.48
2019-05-25T17:48:37.437Z,47.98
2019-05-25T17:51:06.202Z,48.35
2019-05-25T17:53:34.940Z,48.47
2019-05-25T17:56:03.629Z,48.60
2019-05-25T17:58:33.977Z,48.93
2019-05-25T18:01:02.815Z,49.57
2019-05-25T18:03:31.392Z,50.31
2019-05-25T18:06:00.083Z,53.12
2019-05-25T18:08:32.656Z,51.17
2019-05-25T18:11:01.374Z,50.39
2019-05-25T18:13:29.970Z,50.51
2019-05-25T18:15:58.632Z,50.22
2019-05-25T18:18:27.342Z,50.97
2019-05-25T18:20:56.063Z,50.64
2019-05-25T18:23:24.720Z,51.19
2019-05-25T18:25:53.338Z,51.44
2019-05-25T18:28:22.058Z,51.92
2019-05-25T18:30:50.707Z,52.59
2019-05-25T18:33:19.439Z,52.78
2019-05-25T18:35:48.186Z,53.43
2019-05-25T18:38:16.884Z,53.58
2019-05-25T18:40:45.665Z,53.83
2019-05-25T18:43:14.384Z,53.80
2019-05-25T18:45:43.149Z,53.96
2019-05-25T18:48:13.270Z,53.72
2019-05-25T18:50:41.974Z,53.64
2019-05-25T18:53:10.699Z,53.51
2019-05-25T18:55:39.465Z,53.43
2019-05-25T18:58:08.140Z,53.71
2019-05-25T19:00:36.799Z,53.43
2019-05-25T19:03:05.653Z,53.29
2019-05-25T19:05:34.355Z,53.57
2019-05-25T19:08:03.022Z,53.39
2019-05-25T19:10:31.762Z,53.72
2019-05-25T19:13:00.499Z,53.88
2019-05-25T19:15:29.254Z,53.59
2019-05-25T19:17:57.796Z,53.31
2019-05-25T19:20:26.450Z,52.86
2019-05-25T19:22:55.251Z,53.32
2019-05-25T19:25:23.966Z,53.46
2019-05-25T19:27:52.621Z,54.63
2019-05-25T19:30:21.412Z,54.87
2019-05-25T19:32:50.128Z,55.20
2019-05-25T19:35:18.881Z,55.52
2019-05-25T19:37:47.574Z,55.27
2019-05-25T19:40:17.894Z,55.35
2019-05-25T19:42:49.829Z,55.12
2019-05-25T19:45:17.339Z,55.08
2019-05-25T19:47:46.037Z,55.42
2019-05-25T19:50:15.366Z,54.94
2019-05-25T19:52:44.121Z,55.14
2019-05-25T19:55:13.041Z,55.29
2019-05-25T19:57:45.083Z,55.12
2019-05-25T20:00:12.549Z,54.66
2019-05-25T20:02:41.343Z,54.65
2019-05-25T20:05:16.988Z,54.29
2019-05-25T20:07:40.780Z,54.86
2019-05-25T20:10:10.859Z,54.32
2019-05-25T20:12:39.422Z,54.98
2019-05-25T20:15:09.505Z,55.43
2019-05-25T20:17:38.212Z,55.21
2019-05-25T20:20:08.031Z,54.79
2019-05-25T20:22:36.718Z,54.88
2019-05-25T20:25:08.642Z,55.39
2019-05-25T20:27:37.256Z,55.75
2019-05-25T20:30:07.783Z,56.39
2019-05-25T20:32:36.592Z,55.72
2019-05-25T20:35:08.365Z,56.14
2019-05-25T20:37:37.065Z,55.75
2019-05-25T20:40:07.819Z,55.41
2019-05-25T20:42:36.881Z,54.71
2019-05-25T20:45:07.756Z,54.56
2019-05-25T20:47:36.404Z,55.60
2019-05-25T20:50:07.533Z,55.37
2019-05-25T20:52:36.343Z,55.52
2019-05-25T20:55:09.146Z,55.52
2019-05-25T20:57:37.752Z,55.20
2019-05-25T21:00:07.609Z,55.22
2019-05-25T21:02:36.314Z,55.53
2019-05-25T21:05:07.168Z,55.16
2019-05-25T21:07:35.793Z,55.71
2019-05-25T21:10:08.628Z,56.36
2019-05-25T21:12:39.682Z,56.62
2019-05-25T21:15:08.984Z,56.73
2019-05-25T21:17:37.704Z,56.09
2019-05-25T21:20:07.751Z,56.31
2019-05-25T21:22:36.469Z,56.24
2019-05-25T21:25:08.494Z,55.94
2019-05-25T21:27:37.216Z,56.41
2019-05-25T21:30:06.604Z,56.38
2019-05-25T21:32:35.246Z,56.28
2019-05-25T21:35:04.610Z,56.02
2019-05-25T21:37:33.389Z,56.68
2019-05-25T21:40:02.743Z,56.93
2019-05-25T21:42:31.539Z,56.84
2019-05-25T21:45:00.159Z,57.08
2019-05-25T21:47:28.908Z,57.02
2019-05-25T21:49:57.554Z,56.91
2019-05-25T21:52:26.243Z,56.90
2019-05-25T21:54:54.924Z,57.69
2019-05-25T21:57:23.648Z,57.59
2019-05-25T21:59:52.426Z,58.04
2019-05-25T22:02:21.271Z,57.27
2019-05-25T22:04:49.918Z,57.73
2019-05-25T22:07:18.670Z,56.76
2019-05-25T22:09:47.411Z,58.28
2019-05-25T22:12:16.130Z,58.90
2019-05-25T22:14:44.823Z,57.76
2019-05-25T22:17:13.497Z,58.18
2019-05-25T22:19:42.217Z,56.83
2019-05-25T22:22:11.158Z,57.11
2019-05-25T22:24:39.881Z,56.48
2019-05-25T22:27:08.551Z,56.64
2019-05-25T22:29:37.266Z,57.43
2019-05-25T22:32:06.181Z,57.97
2019-05-25T22:34:34.829Z,57.88
2019-05-25T22:37:03.645Z,58.91
2019-05-25T22:39:32.514Z,58.69
2019-05-25T22:42:01.247Z,58.47
2019-05-25T22:44:30.146Z,62.11
2019-05-25T22:46:58.877Z,62.65
2019-05-25T22:49:27.545Z,62.59
2019-05-25T22:51:56.305Z,63.38
2019-05-25T22:54:25.086Z,63.95
2019-05-25T22:56:53.735Z,63.09
2019-05-25T22:59:22.399Z,63.45
2019-05-25T23:01:51.182Z,63.15
2019-05-25T23:04:19.902Z,63.39
2019-05-25T23:06:57.896Z,63.44
2019-05-25T23:09:19.156Z,62.88
2019-05-25T23:11:47.880Z,62.76
2019-05-25T23:14:16.525Z,60.23
2019-05-25T23:16:45.229Z,59.73
2019-05-25T23:19:13.956Z,60.28
2019-05-25T23:21:42.542Z,60.49
2019-05-25T23:24:11.234Z,60.01
2019-05-25T23:26:40.167Z,62.21
2019-05-25T23:29:08.869Z,60.76
2019-05-25T23:31:37.569Z,59.17
2019-05-25T23:34:06.231Z,59.18
2019-05-25T23:36:34.999Z,58.76
2019-05-25T23:39:04.732Z,59.23
2019-05-25T23:41:33.368Z,59.54
2019-05-25T23:44:02.024Z,57.94
2019-05-25T23:46:30.790Z,59.10
2019-05-25T23:48:59.459Z,59.23
2019-05-25T23:51:28.184Z,58.13
2019-05-25T23:53:56.878Z,59.20
2019-05-25T23:56:25.525Z,58.63
2019-05-25T23:58:54.164Z,58.76
